Time;durP1;ratioP1;P1;durP2;ratioP2;P2;SDS_P1;SDS_P2;PMS_P1;PMS_P2;Temp;Humidity;BMP_temperature;BMP_pressure;BME280_temperature;BME280_humidity;BME280_pressure;Samples;Min_cycle;Max_cycle;Signal;HPM_P1;HPM_P2
2022/11/16 00:02:10;;;;;;;21.30;16.93;;;10.10;99.90;;;;;;5053439;28;20247;-56
2022/11/16 00:04:39;;;;;;;22.27;16.43;;;10.10;99.90;;;;;;5060168;28;20743;-56
2022/11/16 00:07:09;;;;;;;21.57;16.20;;;10.00;99.90;;;;;;5059192;28;20221;-57
2022/11/16 00:09:37;;;;;;;23.13;16.87;;;10.00;99.90;;;;;;5053834;28;20724;-56
2022/11/16 00:12:08;;;;;;;20.47;16.37;;;10.00;99.90;;;;;;5053293;28;20237;-57
2022/11/16 00:14:36;;;;;;;20.03;16.27;;;10.00;99.90;;;;;;5053342;28;20227;-56
2022/11/16 00:17:05;;;;;;;23.43;17.13;;;9.90;99.90;;;;;;5054958;28;20278;-56
2022/11/16 00:19:33;;;;;;;23.63;18.00;;;9.90;99.90;;;;;;5058292;28;20291;-56
2022/11/16 00:22:01;;;;;;;21.83;17.67;;;9.90;99.90;;;;;;5053684;28;20232;-56
2022/11/16 00:24:30;;;;;;;20.87;17.23;;;9.80;99.90;;;;;;5053534;28;20235;-56
2022/11/16 00:26:58;;;;;;;21.53;17.30;;;9.90;99.90;;;;;;5053476;28;20274;-56
2022/11/16 00:29:27;;;;;;;22.63;17.97;;;9.90;99.90;;;;;;5052891;28;20222;-57
2022/11/16 00:31:55;;;;;;;22.63;17.30;;;9.90;99.90;;;;;;5053162;28;20646;-56
2022/11/16 00:34:24;;;;;;;22.03;17.23;;;9.90;99.90;;;;;;5057797;28;20694;-56
2022/11/16 00:36:52;;;;;;;22.97;18.53;;;9.90;99.90;;;;;;5062906;28;20224;-56
2022/11/16 00:39:20;;;;;;;22.83;17.57;;;9.90;99.90;;;;;;5053115;28;20289;-56
2022/11/16 00:41:50;;;;;;;24.57;18.30;;;9.90;99.90;;;;;;5052985;28;20277;-56
2022/11/16 00:44:18;;;;;;;23.60;17.87;;;9.80;99.90;;;;;;5055580;28;20224;-56
2022/11/16 00:46:46;;;;;;;23.50;17.93;;;9.80;99.90;;;;;;5051971;28;20239;-56
2022/11/16 00:49:14;;;;;;;23.00;19.03;;;9.80;99.90;;;;;;5059154;28;20227;-56
2022/11/16 00:51:43;;;;;;;24.47;19.27;;;9.80;99.90;;;;;;5051532;28;20238;-56
2022/11/16 00:54:11;;;;;;;24.17;19.10;;;9.70;99.90;;;;;;5051600;28;20229;-57
2022/11/16 00:56:39;;;;;;;25.90;20.67;;;9.80;99.90;;;;;;5051550;28;20345;-56
2022/11/16 00:59:09;;;;;;;24.60;19.53;;;9.70;99.90;;;;;;5052845;28;20230;-56
2022/11/16 01:01:37;;;;;;;26.13;20.20;;;9.70;99.90;;;;;;5051228;28;20247;-56
2022/11/16 01:04:06;;;;;;;26.93;20.60;;;9.70;99.90;;;;;;5053736;28;20268;-56
2022/11/16 01:06:36;;;;;;;26.07;19.40;;;9.70;99.90;;;;;;5064787;28;20689;-56
2022/11/16 01:09:04;;;;;;;24.43;19.13;;;9.70;99.90;;;;;;5052733;28;20232;-57
2022/11/16 01:14:19;;;;;;;27.53;21.47;;;9.60;99.90;;;;;;5055360;28;20234;-56
2022/11/16 01:16:49;;;;;;;26.93;21.53;;;9.60;99.90;;;;;;5052544;28;20221;-56
2022/11/16 01:19:17;;;;;;;28.30;21.60;;;9.60;99.90;;;;;;5058737;28;20265;-56
2022/11/16 01:21:45;;;;;;;23.77;19.37;;;9.50;99.90;;;;;;5051208;28;20231;-56
2022/11/16 01:24:14;;;;;;;25.73;20.57;;;9.50;99.90;;;;;;5052172;28;20215;-56
2022/11/16 01:26:42;;;;;;;25.53;20.57;;;9.50;99.90;;;;;;5052452;28;20215;-56
2022/11/16 01:29:10;;;;;;;24.70;20.43;;;9.50;99.90;;;;;;5061532;28;20219;-56
2022/11/16 01:31:44;;;;;;;24.33;20.30;;;9.50;99.90;;;;;;5070495;28;20231;-56
2022/11/16 01:34:12;;;;;;;24.47;20.67;;;9.50;99.90;;;;;;5071246;28;20282;-56
2022/11/16 01:36:40;;;;;;;25.10;20.17;;;9.50;99.90;;;;;;5056171;28;20627;-56
2022/11/16 01:39:08;;;;;;;25.90;21.83;;;9.40;99.90;;;;;;5052319;28;20758;-56
2022/11/16 01:41:58;;;;;;;27.27;22.20;;;9.40;99.90;;;;;;5051415;28;20224;-56
2022/11/16 01:44:58;;;;;;;25.23;20.17;;;9.30;99.90;;;;;;5054787;28;20746;-57
2022/11/16 01:47:28;;;;;;;27.30;21.37;;;9.30;99.90;;;;;;5055031;28;20694;-56
2022/11/16 01:50:07;;;;;;;27.20;21.67;;;9.30;99.90;;;;;;5052472;28;20307;-56
2022/11/16 01:52:40;;;;;;;26.27;21.40;;;9.30;99.90;;;;;;5051017;28;20588;-56
2022/11/16 01:55:09;;;;;;;26.37;20.93;;;9.20;99.90;;;;;;5050644;28;20634;-56
2022/11/16 01:58:04;;;;;;;28.30;22.60;;;9.20;99.90;;;;;;5045045;28;20264;-56
2022/11/16 02:00:34;;;;;;;26.07;21.37;;;9.20;99.90;;;;;;5069016;28;20262;-56
2022/11/16 02:03:25;;;;;;;29.17;22.97;;;9.20;99.90;;;;;;5070855;28;20247;-55
2022/11/16 02:06:27;;;;;;;28.53;21.67;;;9.10;99.90;;;;;;5061056;28;20223;-56
2022/11/16 02:12:51;;;;;;;31.60;23.00;;;9.10;99.90;;;;;;5050929;28;20231;-56
2022/11/16 02:15:29;;;;;;;30.73;23.53;;;9.10;99.90;;;;;;5044775;28;20219;-56
2022/11/16 02:18:20;;;;;;;29.97;23.67;;;9.10;99.90;;;;;;5057094;28;20614;-56
2022/11/16 02:21:14;;;;;;;32.53;24.87;;;9.00;99.90;;;;;;5050531;28;20265;-56
2022/11/16 02:24:34;;;;;;;33.57;24.40;;;9.00;99.90;;;;;;5052206;28;20692;-56
2022/11/16 02:27:46;;;;;;;35.67;25.07;;;8.90;99.90;;;;;;4993698;28;20300;-56
2022/11/16 02:30:19;;;;;;;32.70;24.80;;;8.90;99.90;;;;;;4994090;28;20843;-56
2022/11/16 02:32:52;;;;;;;34.40;24.87;;;8.80;99.90;;;;;;5050117;28;20294;-55
2022/11/16 02:35:27;;;;;;;36.70;25.20;;;8.90;99.90;;;;;;5064111;28;20296;-57
2022/11/16 02:38:00;;;;;;;33.77;24.33;;;8.80;99.90;;;;;;5075666;28;20242;-56
2022/11/16 02:40:33;;;;;;;33.07;24.17;;;8.80;99.90;;;;;;5075308;28;20228;-55
2022/11/16 02:43:07;;;;;;;35.53;26.07;;;8.80;99.90;;;;;;5073000;28;20246;-56
2022/11/16 02:45:41;;;;;;;35.10;25.50;;;8.80;99.90;;;;;;5053965;28;20220;-55
2022/11/16 02:48:15;;;;;;;34.77;25.23;;;8.70;99.90;;;;;;5054019;28;20259;-56
2022/11/16 02:50:44;;;;;;;36.80;25.47;;;8.70;99.90;;;;;;5055412;28;20697;-56
2022/11/16 02:53:12;;;;;;;33.33;24.43;;;8.70;99.90;;;;;;5055176;28;20318;-55
2022/11/16 02:55:41;;;;;;;35.80;24.43;;;8.70;99.90;;;;;;5055082;28;20227;-56
2022/11/16 02:58:11;;;;;;;33.30;24.73;;;8.70;99.90;;;;;;5055011;28;20234;-55
2022/11/16 03:00:46;;;;;;;37.13;26.00;;;8.70;99.90;;;;;;5053308;28;20232;-56
2022/11/16 03:03:28;;;;;;;36.43;25.07;;;8.60;99.90;;;;;;5053588;28;20248;-55
2022/11/16 03:06:01;;;;;;;35.17;25.00;;;8.60;99.90;;;;;;5062252;28;20254;-54
2022/11/16 03:08:33;;;;;;;36.67;25.27;;;8.60;99.90;;;;;;5053435;28;20227;-55
2022/11/16 03:13:57;;;;;;;36.73;25.20;;;8.60;99.90;;;;;;5056101;28;20254;-56
2022/11/16 03:16:31;;;;;;;38.60;25.30;;;8.60;99.90;;;;;;5053377;28;20282;-55
2022/11/16 03:19:02;;;;;;;36.07;23.30;;;8.60;99.90;;;;;;5053419;28;20232;-56
2022/11/16 03:21:36;;;;;;;35.57;24.70;;;8.60;99.90;;;;;;5053261;28;20227;-54
2022/11/16 03:24:06;;;;;;;32.43;24.17;;;8.60;99.90;;;;;;5054674;28;20219;-55
2022/11/16 03:26:44;;;;;;;34.97;24.47;;;8.50;99.90;;;;;;5055893;28;20253;-56
2022/11/16 03:29:18;;;;;;;35.27;24.17;;;8.50;99.90;;;;;;5053331;28;20298;-55
2022/11/16 03:31:52;;;;;;;37.03;24.87;;;8.50;99.90;;;;;;5054177;28;20272;-55
2022/11/16 03:34:25;;;;;;;35.97;24.37;;;8.50;99.90;;;;;;5057417;28;20680;-56
2022/11/16 03:36:55;;;;;;;34.70;23.77;;;8.50;99.90;;;;;;5064751;28;20568;-56
2022/11/16 03:39:26;;;;;;;35.83;24.50;;;8.50;99.90;;;;;;5073259;28;20238;-56
2022/11/16 03:41:57;;;;;;;35.00;23.17;;;8.50;99.90;;;;;;5074273;28;20222;-56
2022/11/16 03:44:26;;;;;;;35.80;24.37;;;8.40;99.90;;;;;;5057400;28;20705;-55
2022/11/16 03:46:56;;;;;;;36.93;24.70;;;8.50;99.90;;;;;;5053842;28;20742;-56
2022/11/16 03:49:24;;;;;;;37.63;24.47;;;8.50;99.90;;;;;;5046570;28;20315;-56
2022/11/16 03:51:53;;;;;;;34.33;23.40;;;8.50;99.90;;;;;;5052780;28;20266;-56
2022/11/16 03:54:22;;;;;;;37.50;25.20;;;8.40;99.90;;;;;;5052828;28;20224;-56
2022/11/16 03:56:50;;;;;;;37.33;24.97;;;8.40;99.90;;;;;;5064531;28;20234;-56
2022/11/16 03:59:18;;;;;;;37.77;25.80;;;8.30;99.90;;;;;;5063158;28;20270;-56
2022/11/16 04:01:46;;;;;;;39.00;25.53;;;8.40;99.90;;;;;;5052128;28;20244;-56
2022/11/16 04:28:11;;;;;;;35.60;23.63;;;8.40;99.90;;;;;;5058172;28;20234;-56
2022/11/16 04:29:06;;;;;;;35.47;23.70;;;8.30;99.90;;;;;;5072068;28;20219;-56
2022/11/16 04:39:52;;;;;;;38.83;24.90;;;8.30;99.90;;;;;;5051792;28;20232;-54
2022/11/16 04:42:21;;;;;;;37.53;24.47;;;8.20;99.90;;;;;;5052115;28;20228;-54
2022/11/16 04:47:50;;;;;;;37.30;24.87;;;8.20;99.90;;;;;;5035879;28;20241;-56
2022/11/16 04:50:20;;;;;;;39.77;25.83;;;8.30;99.90;;;;;;5050875;28;20216;-57
2022/11/16 04:52:51;;;;;;;35.93;23.53;;;8.30;99.90;;;;;;5058420;28;20621;-56
2022/11/16 04:55:19;;;;;;;40.40;24.63;;;8.20;99.90;;;;;;5072051;28;20353;-55
2022/11/16 04:57:49;;;;;;;38.30;23.97;;;8.30;99.90;;;;;;5071472;28;20250;-57
2022/11/16 05:00:18;;;;;;;38.80;25.70;;;8.20;99.90;;;;;;5070792;28;20219;-57
2022/11/16 05:02:46;;;;;;;41.90;25.17;;;8.20;99.90;;;;;;5071512;28;20318;-56
2022/11/16 05:05:15;;;;;;;39.60;25.70;;;8.20;99.90;;;;;;5071779;28;20235;-56
2022/11/16 05:07:45;;;;;;;40.77;25.23;;;8.10;99.90;;;;;;5071753;28;20231;-55
2022/11/16 05:10:21;;;;;;;36.97;24.83;;;8.10;99.90;;;;;;5071618;28;20721;-56
2022/11/16 05:12:50;;;;;;;41.10;26.70;;;8.10;99.90;;;;;;5068211;28;20274;-56
2022/11/16 05:15:18;;;;;;;39.83;25.77;;;8.20;99.90;;;;;;5051508;28;20230;-56
2022/11/16 05:17:48;;;;;;;40.53;25.77;;;8.10;99.90;;;;;;5057726;28;20725;-56
2022/11/16 05:24:32;;;;;;;40.90;25.97;;;8.10;99.90;;;;;;5057002;28;20633;-56
2022/11/16 05:25:59;;;;;;;42.17;24.73;;;8.10;99.90;;;;;;5071394;28;20314;-56
2022/11/16 05:28:28;;;;;;;38.63;25.57;;;8.10;99.90;;;;;;5071173;28;20234;-56
2022/11/16 05:30:57;;;;;;;40.23;25.20;;;8.10;99.90;;;;;;5071015;28;20281;-56
2022/11/16 05:33:27;;;;;;;43.27;27.30;;;8.10;99.90;;;;;;5071405;28;20224;-56
2022/11/16 05:35:55;;;;;;;40.37;25.70;;;8.10;99.90;;;;;;5071248;28;20227;-56
2022/11/16 05:38:24;;;;;;;37.80;25.20;;;8.00;99.90;;;;;;5071439;28;20233;-56
2022/11/16 05:40:56;;;;;;;38.67;25.20;;;8.00;99.90;;;;;;5071073;28;20235;-56
2022/11/16 05:43:25;;;;;;;39.23;24.87;;;8.10;99.90;;;;;;5065589;28;20254;-56
2022/11/16 05:46:08;;;;;;;40.50;25.43;;;8.00;99.90;;;;;;5051010;28;20228;-56
2022/11/16 05:48:37;;;;;;;38.57;24.53;;;8.00;99.90;;;;;;5057208;28;20220;-56
2022/11/16 05:51:06;;;;;;;40.73;25.20;;;8.00;99.90;;;;;;5052142;28;20267;-56
2022/11/16 05:53:35;;;;;;;39.13;25.43;;;8.00;99.90;;;;;;5059745;28;20284;-56
2022/11/16 05:56:04;;;;;;;42.23;25.63;;;8.00;99.90;;;;;;5070918;28;20284;-56
2022/11/16 05:58:37;;;;;;;42.47;26.37;;;8.00;99.90;;;;;;5071084;28;20632;-56
2022/11/16 06:01:05;;;;;;;40.90;25.90;;;8.00;99.90;;;;;;5070593;28;20281;-56
2022/11/16 06:03:35;;;;;;;43.77;27.20;;;8.10;99.90;;;;;;5070829;28;20610;-56
2022/11/16 06:06:05;;;;;;;44.73;25.97;;;8.00;99.90;;;;;;5071091;28;20223;-57
2022/11/16 06:08:33;;;;;;;38.80;24.23;;;8.00;99.90;;;;;;5072394;28;20230;-56
2022/11/16 06:11:06;;;;;;;45.00;26.57;;;8.00;99.90;;;;;;5073554;28;20659;-55
2022/11/16 06:13:38;;;;;;;46.73;27.17;;;8.00;99.90;;;;;;5067372;28;20587;-56
2022/11/16 06:16:07;;;;;;;48.50;27.60;;;7.90;99.90;;;;;;5062289;28;20227;-56
2022/11/16 06:18:38;;;;;;;42.93;26.93;;;7.90;99.90;;;;;;5062357;28;20772;-56
2022/11/16 06:21:08;;;;;;;38.23;25.20;;;7.90;99.90;;;;;;5059857;28;20310;-57
2022/11/16 06:23:38;;;;;;;41.47;25.57;;;7.90;99.90;;;;;;5057414;28;20250;-56
2022/11/16 06:26:08;;;;;;;45.17;26.47;;;7.90;99.90;;;;;;5057159;28;20222;-56
2022/11/16 06:28:39;;;;;;;46.67;26.23;;;7.90;99.90;;;;;;5059871;28;20232;-56
2022/11/16 06:31:07;;;;;;;44.53;26.53;;;7.90;99.90;;;;;;5053173;28;20759;-56
2022/11/16 06:33:40;;;;;;;43.23;27.00;;;7.80;99.90;;;;;;5060667;28;20226;-55
2022/11/16 06:36:15;;;;;;;43.23;25.13;;;7.90;99.90;;;;;;5053679;28;20702;-56
2022/11/16 06:38:44;;;;;;;41.03;25.30;;;7.80;99.90;;;;;;5055758;28;20765;-57
2022/11/16 06:41:13;;;;;;;45.37;26.20;;;7.80;99.90;;;;;;5057883;28;20220;-56
2022/11/16 06:43:46;;;;;;;39.57;25.73;;;7.80;99.90;;;;;;5058886;28;20260;-56
2022/11/16 06:46:17;;;;;;;44.20;26.17;;;7.80;99.90;;;;;;5062427;28;20220;-53
2022/11/16 06:48:45;;;;;;;41.70;24.57;;;7.80;99.90;;;;;;5056828;28;20698;-56
2022/11/16 06:51:14;;;;;;;39.80;25.57;;;7.80;99.90;;;;;;5057499;28;20219;-56
2022/11/16 06:53:42;;;;;;;40.10;25.47;;;7.70;99.90;;;;;;5056709;28;20223;-56
2022/11/16 06:56:14;;;;;;;47.30;26.00;;;7.70;99.90;;;;;;5057329;28;20224;-56
2022/11/16 06:58:51;;;;;;;43.57;25.73;;;7.70;99.90;;;;;;5052727;28;20623;-57
2022/11/16 07:01:23;;;;;;;45.10;25.13;;;7.70;99.90;;;;;;5056393;28;20278;-57
2022/11/16 07:03:56;;;;;;;45.07;26.40;;;7.70;99.90;;;;;;5061842;28;20715;-58
2022/11/16 07:06:25;;;;;;;39.73;24.80;;;7.70;99.90;;;;;;5057846;28;20352;-56
2022/11/16 07:08:53;;;;;;;42.63;26.50;;;7.70;99.90;;;;;;5061473;28;20718;-56
2022/11/16 07:11:25;;;;;;;41.50;26.33;;;7.70;99.90;;;;;;5063067;28;20620;-56
2022/11/16 07:13:54;;;;;;;41.93;24.67;;;7.70;99.90;;;;;;5060444;28;20302;-55
2022/11/16 07:16:23;;;;;;;41.80;24.93;;;7.70;99.90;;;;;;5049614;28;20277;-56
2022/11/16 07:18:57;;;;;;;41.50;24.57;;;7.70;99.90;;;;;;5060285;28;20257;-56
2022/11/16 07:21:28;;;;;;;47.63;26.67;;;7.70;99.90;;;;;;5065288;28;20219;-56
2022/11/16 07:23:58;;;;;;;42.83;25.00;;;7.70;99.90;;;;;;5060749;28;20684;-56
2022/11/16 07:26:27;;;;;;;38.13;23.63;;;7.70;99.90;;;;;;5052878;28;20234;-56
2022/11/16 07:29:02;;;;;;;38.53;24.03;;;7.70;99.90;;;;;;5064610;28;20269;-56
2022/11/16 07:31:31;;;;;;;36.60;22.47;;;7.60;99.90;;;;;;5052338;28;20231;-56
2022/11/16 07:34:18;;;;;;;40.90;24.83;;;7.70;99.90;;;;;;5054646;28;20277;-56
2022/11/16 07:36:51;;;;;;;41.33;25.67;;;7.60;99.90;;;;;;5053229;28;20591;-56
2022/11/16 07:39:20;;;;;;;36.23;22.57;;;7.70;99.90;;;;;;5053081;28;20228;-56
2022/11/16 07:41:52;;;;;;;40.80;24.20;;;7.70;99.90;;;;;;5052962;28;20246;-57
2022/11/16 07:44:41;;;;;;;39.03;23.20;;;7.70;99.90;;;;;;5055319;28;20315;-56
2022/11/16 07:47:10;;;;;;;40.87;24.40;;;7.70;99.90;;;;;;5052984;28;20232;-56
2022/11/16 07:49:40;;;;;;;37.47;23.37;;;7.70;99.90;;;;;;5056548;28;20242;-57
2022/11/16 07:52:16;;;;;;;38.33;24.67;;;7.70;99.90;;;;;;5051984;28;20223;-57
2022/11/16 07:55:06;;;;;;;38.93;24.13;;;7.70;99.90;;;;;;5052645;28;20769;-56
2022/11/16 07:57:34;;;;;;;35.27;22.60;;;7.70;99.90;;;;;;5052549;28;20228;-56
2022/11/16 08:00:09;;;;;;;38.03;22.80;;;7.70;99.90;;;;;;5052672;28;20259;-56
2022/11/16 08:02:55;;;;;;;35.93;22.70;;;7.70;99.90;;;;;;5052245;28;20243;-56
2022/11/16 08:05:23;;;;;;;37.83;22.57;;;7.70;99.90;;;;;;5052529;28;20231;-56
2022/11/16 08:07:51;;;;;;;35.20;22.27;;;7.70;99.90;;;;;;5053914;28;20230;-57
2022/11/16 08:10:23;;;;;;;38.33;24.20;;;7.70;99.90;;;;;;5058735;28;20239;-56
2022/11/16 08:12:52;;;;;;;38.20;23.73;;;7.70;99.90;;;;;;5052134;28;20224;-56
2022/11/16 08:15:22;;;;;;;36.33;23.77;;;7.70;99.90;;;;;;5052218;28;20230;-56
2022/11/16 08:17:51;;;;;;;37.73;22.67;;;7.70;99.90;;;;;;5052505;28;20236;-56
2022/11/16 08:20:19;;;;;;;38.50;23.13;;;7.70;99.90;;;;;;5052331;28;20234;-57
2022/11/16 08:22:48;;;;;;;35.33;22.80;;;7.70;99.90;;;;;;5053202;28;20227;-56
2022/11/16 08:25:17;;;;;;;37.10;23.13;;;7.70;99.90;;;;;;5055056;28;20247;-56
2022/11/16 08:27:46;;;;;;;32.23;20.87;;;7.70;99.90;;;;;;5056120;28;20227;-56
2022/11/16 08:30:17;;;;;;;36.47;22.67;;;7.70;99.90;;;;;;5066987;28;20226;-57
2022/11/16 08:32:47;;;;;;;36.43;23.30;;;7.70;99.90;;;;;;5051690;28;20224;-56
2022/11/16 08:35:16;;;;;;;33.93;21.90;;;7.70;99.90;;;;;;5051339;28;20231;-56
2022/11/16 08:37:45;;;;;;;34.07;22.80;;;7.70;99.90;;;;;;5051993;28;20228;-56
2022/11/16 08:40:14;;;;;;;33.90;22.37;;;7.80;99.90;;;;;;5052047;28;20568;-56
2022/11/16 08:42:43;;;;;;;32.87;22.03;;;7.80;99.90;;;;;;5051280;28;20587;-56
2022/11/16 08:45:12;;;;;;;31.00;20.83;;;7.70;99.90;;;;;;5042881;28;20227;-56
2022/11/16 08:47:41;;;;;;;34.93;23.37;;;7.70;99.90;;;;;;5051754;28;20232;-56
2022/11/16 08:50:11;;;;;;;37.17;23.10;;;7.80;99.90;;;;;;5060171;28;20806;-56
2022/11/16 08:52:39;;;;;;;33.47;21.73;;;7.80;99.90;;;;;;5051700;28;20262;-56
2022/11/16 08:55:09;;;;;;;32.30;22.53;;;7.80;99.90;;;;;;5051635;28;20266;-56
2022/11/16 08:57:38;;;;;;;34.23;22.53;;;7.80;99.90;;;;;;5051758;28;20580;-56
2022/11/16 09:00:11;;;;;;;34.40;23.57;;;7.80;99.90;;;;;;5051582;28;20255;-55
2022/11/16 09:02:39;;;;;;;33.90;22.50;;;7.80;99.90;;;;;;5054735;28;20593;-56
2022/11/16 09:05:10;;;;;;;32.27;23.40;;;7.80;99.90;;;;;;5051971;28;20252;-56
2022/11/16 09:07:42;;;;;;;35.03;22.30;;;7.80;99.90;;;;;;5056824;28;20219;-56
2022/11/16 09:10:10;;;;;;;35.97;22.83;;;7.80;99.90;;;;;;5055728;28;20227;-56
2022/11/16 09:12:39;;;;;;;34.30;23.83;;;7.80;99.90;;;;;;5055263;28;20216;-56
2022/11/16 09:15:08;;;;;;;34.00;22.30;;;7.80;99.90;;;;;;5052438;28;20314;-56
2022/11/16 09:17:37;;;;;;;33.60;23.53;;;7.80;99.90;;;;;;5062966;28;20266;-56
2022/11/16 09:20:06;;;;;;;35.57;24.23;;;7.80;99.90;;;;;;5055040;28;20208;-57
2022/11/16 09:22:35;;;;;;;34.53;23.20;;;7.80;99.90;;;;;;5060922;28;20231;-56
2022/11/16 09:25:05;;;;;;;34.30;24.20;;;7.80;99.90;;;;;;5052809;28;20246;-56
2022/11/16 09:27:33;;;;;;;36.20;24.83;;;7.80;99.90;;;;;;5056041;28;20216;-56
2022/11/16 09:30:01;;;;;;;34.57;23.30;;;7.80;99.90;;;;;;5061649;28;20219;-57
2022/11/16 09:32:29;;;;;;;33.60;23.53;;;7.80;99.90;;;;;;5053354;28;20228;-56
2022/11/16 09:34:57;;;;;;;35.60;24.20;;;7.80;99.90;;;;;;5052167;28;20320;-56
2022/11/16 09:37:25;;;;;;;37.53;26.20;;;7.80;99.90;;;;;;5055492;28;20318;-56
2022/11/16 09:39:54;;;;;;;35.20;23.83;;;7.80;99.90;;;;;;5053070;28;20583;-56
2022/11/16 09:42:35;;;;;;;34.07;24.30;;;7.80;99.90;;;;;;5053503;28;20227;-56
2022/11/16 09:45:07;;;;;;;36.70;24.87;;;7.90;99.90;;;;;;5053368;28;20592;-56
2022/11/16 09:47:47;;;;;;;34.70;24.37;;;7.80;99.90;;;;;;5057179;28;20285;-56
2022/11/16 09:50:33;;;;;;;34.87;24.23;;;7.80;99.90;;;;;;5061178;28;20230;-56
2022/11/16 09:53:12;;;;;;;37.10;24.63;;;7.80;99.90;;;;;;5057962;28;20315;-56
2022/11/16 09:55:47;;;;;;;32.20;23.03;;;7.80;99.90;;;;;;5055929;28;20220;-56
2022/11/16 09:58:22;;;;;;;30.73;22.77;;;7.80;99.90;;;;;;5058994;28;20234;-55
2022/11/16 10:00:58;;;;;;;34.53;23.77;;;7.80;99.90;;;;;;5057515;28;20235;-57
2022/11/16 10:03:28;;;;;;;32.20;23.87;;;7.80;99.90;;;;;;5057320;28;20759;-57
2022/11/16 10:06:02;;;;;;;33.63;23.00;;;7.80;99.90;;;;;;5056532;28;20293;-57
2022/11/16 10:08:42;;;;;;;37.07;24.40;;;7.80;99.90;;;;;;5057725;28;20309;-55
2022/11/16 10:11:37;;;;;;;34.33;24.23;;;7.80;99.90;;;;;;5058996;28;20893;-57
2022/11/16 10:14:31;;;;;;;34.93;24.27;;;7.80;99.90;;;;;;5056370;28;20224;-56
2022/11/16 10:17:06;;;;;;;35.90;24.97;;;7.70;99.90;;;;;;5055484;28;20223;-56
2022/11/16 10:19:46;;;;;;;32.63;23.57;;;7.70;99.90;;;;;;5057120;28;20234;-56
2022/11/16 10:22:29;;;;;;;35.23;24.60;;;7.70;99.90;;;;;;5059070;28;20644;-55
2022/11/16 10:24:59;;;;;;;36.70;24.37;;;7.70;99.90;;;;;;5052993;28;20232;-58
2022/11/16 10:27:40;;;;;;;37.37;24.93;;;7.70;99.90;;;;;;5052087;28;20242;-56
2022/11/16 10:30:14;;;;;;;35.10;24.87;;;7.80;99.90;;;;;;5055323;28;20232;-58
2022/11/16 10:32:49;;;;;;;38.43;24.93;;;7.80;99.90;;;;;;5059394;28;20242;-56
2022/11/16 10:35:24;;;;;;;35.70;25.33;;;7.70;99.90;;;;;;5056586;28;20235;-56
2022/11/16 10:37:53;;;;;;;35.57;24.60;;;7.70;99.90;;;;;;5052841;28;20579;-57
2022/11/16 10:40:23;;;;;;;36.87;24.60;;;7.70;99.90;;;;;;5057152;28;20243;-57
2022/11/16 10:43:01;;;;;;;38.33;25.23;;;7.70;99.90;;;;;;5052359;28;20231;-57
2022/11/16 10:45:37;;;;;;;36.00;23.73;;;7.70;99.90;;;;;;5053786;28;20265;-57
2022/11/16 10:48:14;;;;;;;38.90;25.03;;;7.70;99.90;;;;;;5054804;28;20240;-56
2022/11/16 10:50:45;;;;;;;37.40;23.80;;;7.70;99.90;;;;;;5055483;28;20231;-57
2022/11/16 10:53:15;;;;;;;34.50;23.40;;;7.70;99.90;;;;;;5058555;28;20636;-57
2022/11/16 10:55:43;;;;;;;35.97;24.03;;;7.60;99.90;;;;;;5050932;28;20231;-57
2022/11/16 10:58:11;;;;;;;38.53;24.60;;;7.70;99.90;;;;;;5055481;28;21094;-57
2022/11/16 11:00:45;;;;;;;36.67;24.20;;;7.70;99.90;;;;;;5052860;28;20239;-56
2022/11/16 11:03:14;;;;;;;37.13;23.87;;;7.70;99.90;;;;;;5054383;28;20247;-58
2022/11/16 11:05:49;;;;;;;38.33;25.80;;;7.70;99.90;;;;;;5052496;28;20767;-56
2022/11/16 11:08:26;;;;;;;39.47;25.60;;;7.70;99.90;;;;;;5055506;28;20325;-57
2022/11/16 11:11:00;;;;;;;40.83;25.07;;;7.70;99.90;;;;;;5057095;28;20227;-56
2022/11/16 11:13:29;;;;;;;40.77;25.87;;;7.70;99.90;;;;;;5059209;28;20222;-57
2022/11/16 11:16:17;;;;;;;41.80;27.50;;;7.60;99.90;;;;;;5054128;28;20284;-57
2022/11/16 11:18:45;;;;;;;43.43;25.67;;;7.70;99.90;;;;;;5060329;28;20237;-56
2022/11/16 11:21:18;;;;;;;43.90;26.23;;;7.60;99.90;;;;;;5060587;28;20219;-56
2022/11/16 11:23:49;;;;;;;43.60;27.13;;;7.60;99.90;;;;;;5054738;28;20236;-57
2022/11/16 11:26:29;;;;;;;43.70;26.90;;;7.70;99.90;;;;;;5055062;28;20220;-56
2022/11/16 11:29:16;;;;;;;45.83;26.83;;;7.60;99.90;;;;;;5055079;28;20232;-56
2022/11/16 11:31:48;;;;;;;45.83;26.97;;;7.50;99.90;;;;;;5053640;28;20240;-57
2022/11/16 11:34:20;;;;;;;42.33;27.40;;;7.50;99.90;;;;;;5056979;28;20726;-56
2022/11/16 11:36:52;;;;;;;44.50;27.53;;;7.50;99.90;;;;;;5055799;28;20669;-56
2022/11/16 11:39:29;;;;;;;47.40;26.93;;;7.50;99.90;;;;;;5056957;28;20321;-57
2022/11/16 11:42:17;;;;;;;50.10;27.93;;;7.50;99.90;;;;;;5058063;28;20228;-57
2022/11/16 11:44:53;;;;;;;45.73;27.30;;;7.50;99.90;;;;;;5052278;28;20738;-57
2022/11/16 11:47:44;;;;;;;45.70;28.37;;;7.50;99.90;;;;;;5055601;28;20301;-57
2022/11/16 11:50:42;;;;;;;46.83;27.73;;;7.50;99.90;;;;;;5057140;28;20223;-57
2022/11/16 11:53:20;;;;;;;49.70;27.03;;;7.50;99.90;;;;;;5058699;28;20234;-58
2022/11/16 11:55:52;;;;;;;46.97;27.63;;;7.50;99.90;;;;;;5053080;28;20243;-57
2022/11/16 11:58:21;;;;;;;50.80;29.10;;;7.50;99.90;;;;;;5055726;28;20707;-56
2022/11/16 12:01:08;;;;;;;53.93;29.90;;;7.50;99.90;;;;;;5055240;28;20285;-56
2022/11/16 12:03:51;;;;;;;47.30;28.30;;;7.50;99.90;;;;;;5053680;28;20270;-57
2022/11/16 12:06:26;;;;;;;52.23;29.50;;;7.50;99.90;;;;;;5051814;28;20250;-57
2022/11/16 12:09:08;;;;;;;50.60;28.97;;;7.50;99.90;;;;;;5055955;28;20226;-56
2022/11/16 12:11:50;;;;;;;51.63;29.27;;;7.40;99.90;;;;;;5057981;28;20730;-57
2022/11/16 12:14:34;;;;;;;52.03;28.17;;;7.50;99.90;;;;;;5054990;28;20223;-57
2022/11/16 12:17:12;;;;;;;48.97;28.73;;;7.40;99.90;;;;;;5050824;28;21075;-57
2022/11/16 12:20:00;;;;;;;47.13;27.77;;;7.50;99.90;;;;;;5054738;28;20628;-56
2022/11/16 12:22:50;;;;;;;49.60;27.50;;;7.50;99.90;;;;;;5053700;28;20226;-56
2022/11/16 12:25:25;;;;;;;47.67;27.90;;;7.50;99.90;;;;;;5050498;28;20738;-57
2022/11/16 12:28:13;;;;;;;49.13;29.60;;;7.50;99.90;;;;;;5052340;28;20614;-56
2022/11/16 12:30:56;;;;;;;49.23;29.00;;;7.50;99.90;;;;;;5051695;28;20883;-57
2022/11/16 12:33:34;;;;;;;53.83;29.63;;;7.40;99.90;;;;;;5054440;28;20560;-57
2022/11/16 12:36:12;;;;;;;56.63;29.97;;;7.50;99.90;;;;;;5050157;28;20344;-56
2022/11/16 12:38:56;;;;;;;51.07;30.57;;;7.50;99.90;;;;;;5046452;28;20223;-57
2022/11/16 12:41:47;;;;;;;53.23;30.57;;;7.50;99.90;;;;;;5053539;28;20231;-55
2022/11/16 12:44:20;;;;;;;50.67;28.57;;;7.50;99.90;;;;;;5053898;28;20281;-56
2022/11/16 12:47:01;;;;;;;51.13;27.67;;;7.50;99.90;;;;;;5052823;28;20821;-56
2022/11/16 12:49:58;;;;;;;44.57;26.23;;;7.50;99.90;;;;;;5053903;28;20246;-58
2022/11/16 12:52:46;;;;;;;46.37;26.90;;;7.40;99.90;;;;;;5018853;28;20989;-58
2022/11/16 12:55:24;;;;;;;46.57;27.93;;;7.40;99.90;;;;;;5056568;28;20223;-56
2022/11/16 12:58:14;;;;;;;48.93;28.63;;;7.40;99.90;;;;;;5054423;28;20235;-57
2022/11/16 13:00:56;;;;;;;47.47;29.03;;;7.40;99.90;;;;;;5053037;28;20314;-58
2022/11/16 13:03:33;;;;;;;50.90;28.93;;;7.40;99.90;;;;;;5051185;28;20250;-56
2022/11/16 13:06:04;;;;;;;51.80;27.97;;;7.40;99.90;;;;;;5050036;28;20239;-56
2022/11/16 13:08:49;;;;;;;49.47;29.03;;;7.40;99.90;;;;;;5052465;28;20242;-56
2022/11/16 13:11:20;;;;;;;52.97;28.57;;;7.40;99.90;;;;;;5051842;28;20598;-56
2022/11/16 13:13:52;;;;;;;52.27;28.17;;;7.50;99.90;;;;;;5052910;28;20243;-56
2022/11/16 13:16:22;;;;;;;53.03;27.93;;;7.50;99.90;;;;;;5054504;28;20236;-57
2022/11/16 13:18:52;;;;;;;57.10;31.60;;;7.50;99.90;;;;;;5054307;28;20288;-54
2022/11/16 13:21:31;;;;;;;54.40;30.93;;;7.50;99.90;;;;;;5049590;28;20228;-56
2022/11/16 13:24:12;;;;;;;49.43;27.60;;;7.50;99.90;;;;;;5051824;28;20232;-55
2022/11/16 13:26:48;;;;;;;53.77;29.60;;;7.50;99.90;;;;;;5055837;28;20231;-57
2022/11/16 13:29:26;;;;;;;55.07;29.83;;;7.60;99.90;;;;;;5052450;28;20238;-57
2022/11/16 13:32:01;;;;;;;53.40;29.60;;;7.60;99.90;;;;;;5049497;28;20228;-56
2022/11/16 13:34:32;;;;;;;54.60;28.30;;;7.50;99.90;;;;;;5051042;28;20301;-55
2022/11/16 13:37:00;;;;;;;52.77;29.03;;;7.60;99.90;;;;;;5051426;28;20243;-57
2022/11/16 13:40:07;;;;;;;59.40;30.97;;;7.50;99.90;;;;;;5053324;28;20235;-56
2022/11/16 13:42:43;;;;;;;53.63;29.13;;;7.60;99.90;;;;;;5055099;28;20650;-56
2022/11/16 13:45:18;;;;;;;55.33;29.03;;;7.60;99.90;;;;;;5051724;28;20285;-56
2022/11/16 13:47:50;;;;;;;51.80;29.03;;;7.60;99.90;;;;;;5053908;28;20230;-57
2022/11/16 13:50:21;;;;;;;50.83;28.00;;;7.60;99.90;;;;;;5051357;28;20714;-57
2022/11/16 13:52:52;;;;;;;54.13;31.43;;;7.60;99.90;;;;;;5049884;28;20236;-56
2022/11/16 13:55:43;;;;;;;53.70;30.70;;;7.60;99.90;;;;;;5055844;28;20304;-57